sensor_id;sensor_type;location;lat;lon;timestamp;P1;durP1;ratioP1;P2;durP2;ratioP2
32976;SDS011;67408;50.842;4.450;2023-08-17T00:01:14;8.30;;;2.75;;
32976;SDS011;67408;50.842;4.450;2023-08-17T00:03:40;7.50;;;3.15;;
32976;SDS011;67408;50.842;4.450;2023-08-17T00:06:06;6.55;;;2.50;;
32976;SDS011;67408;50.842;4.450;2023-08-17T00:08:36;8.60;;;3.63;;
32976;SDS011;67408;50.842;4.450;2023-08-17T00:11:01;7.80;;;2.72;;
32976;SDS011;67408;50.842;4.450;2023-08-17T00:13:28;5.30;;;2.55;;
32976;SDS011;67408;50.842;4.450;2023-08-17T00:15:53;4.70;;;2.50;;
32976;SDS011;67408;50.842;4.450;2023-08-17T00:18:19;4.97;;;2.75;;
32976;SDS011;67408;50.842;4.450;2023-08-17T00:20:44;12.02;;;3.10;;
32976;SDS011;67408;50.842;4.450;2023-08-17T00:23:10;5.78;;;2.67;;
32976;SDS011;67408;50.842;4.450;2023-08-17T00:25:36;6.57;;;3.22;;
32976;SDS011;67408;50.842;4.450;2023-08-17T00:28:01;7.35;;;2.65;;
32976;SDS011;67408;50.842;4.450;2023-08-17T00:30:28;5.90;;;2.65;;
32976;SDS011;67408;50.842;4.450;2023-08-17T00:32:54;8.88;;;2.95;;
32976;SDS011;67408;50.842;4.450;2023-08-17T00:35:20;5.72;;;2.58;;
32976;SDS011;67408;50.842;4.450;2023-08-17T00:37:46;6.82;;;2.70;;
32976;SDS011;67408;50.842;4.450;2023-08-17T00:40:11;8.93;;;3.45;;
32976;SDS011;67408;50.842;4.450;2023-08-17T00:42:37;7.28;;;2.70;;
32976;SDS011;67408;50.842;4.450;2023-08-17T00:45:03;5.82;;;2.67;;
32976;SDS011;67408;50.842;4.450;2023-08-17T00:47:29;5.22;;;2.83;;
32976;SDS011;67408;50.842;4.450;2023-08-17T00:49:56;8.52;;;2.80;;
32976;SDS011;67408;50.842;4.450;2023-08-17T00:52:23;6.82;;;3.05;;
32976;SDS011;67408;50.842;4.450;2023-08-17T00:54:48;5.05;;;2.47;;
32976;SDS011;67408;50.842;4.450;2023-08-17T00:57:14;7.15;;;2.83;;
32976;SDS011;67408;50.842;4.450;2023-08-17T00:59:41;7.55;;;2.90;;
32976;SDS011;67408;50.842;4.450;2023-08-17T01:02:06;7.28;;;2.78;;
32976;SDS011;67408;50.842;4.450;2023-08-17T01:04:33;5.18;;;2.38;;
32976;SDS011;67408;50.842;4.450;2023-08-17T01:07:00;9.27;;;3.60;;
32976;SDS011;67408;50.842;4.450;2023-08-17T01:09:26;8.40;;;3.30;;
32976;SDS011;67408;50.842;4.450;2023-08-17T01:14:33;7.53;;;4.03;;
32976;SDS011;67408;50.842;4.450;2023-08-17T01:17:17;11.02;;;3.80;;
32976;SDS011;67408;50.842;4.450;2023-08-17T01:19:47;12.60;;;3.35;;
32976;SDS011;67408;50.842;4.450;2023-08-17T01:22:14;8.02;;;3.83;;
32976;SDS011;67408;50.842;4.450;2023-08-17T01:24:45;6.57;;;3.30;;
32976;SDS011;67408;50.842;4.450;2023-08-17T01:27:11;15.43;;;3.88;;
32976;SDS011;67408;50.842;4.450;2023-08-17T01:29:37;9.65;;;3.22;;
32976;SDS011;67408;50.842;4.450;2023-08-17T01:32:13;10.88;;;3.60;;
32976;SDS011;67408;50.842;4.450;2023-08-17T01:35:09;6.13;;;3.42;;
32976;SDS011;67408;50.842;4.450;2023-08-17T01:40:15;5.07;;;3.63;;
32976;SDS011;67408;50.842;4.450;2023-08-17T01:42:42;9.18;;;3.42;;
32976;SDS011;67408;50.842;4.450;2023-08-17T01:45:09;10.05;;;3.55;;
32976;SDS011;67408;50.842;4.450;2023-08-17T01:47:36;11.07;;;3.75;;
32976;SDS011;67408;50.842;4.450;2023-08-17T01:50:02;5.32;;;3.58;;
32976;SDS011;67408;50.842;4.450;2023-08-17T01:52:28;8.95;;;3.97;;
32976;SDS011;67408;50.842;4.450;2023-08-17T01:54:54;10.02;;;3.50;;
32976;SDS011;67408;50.842;4.450;2023-08-17T01:57:19;9.73;;;3.70;;
32976;SDS011;67408;50.842;4.450;2023-08-17T01:59:45;5.97;;;3.45;;
32976;SDS011;67408;50.842;4.450;2023-08-17T02:02:11;7.32;;;3.42;;
32976;SDS011;67408;50.842;4.450;2023-08-17T02:04:39;9.80;;;3.63;;
32976;SDS011;67408;50.842;4.450;2023-08-17T02:07:05;8.05;;;3.58;;
32976;SDS011;67408;50.842;4.450;2023-08-17T02:09:31;4.82;;;3.20;;
32976;SDS011;67408;50.842;4.450;2023-08-17T02:11:56;9.38;;;3.90;;
32976;SDS011;67408;50.842;4.450;2023-08-17T02:14:22;9.27;;;3.92;;
32976;SDS011;67408;50.842;4.450;2023-08-17T02:16:48;7.93;;;3.95;;
32976;SDS011;67408;50.842;4.450;2023-08-17T02:19:14;6.97;;;3.45;;
32976;SDS011;67408;50.842;4.450;2023-08-17T02:21:40;8.80;;;4.05;;
32976;SDS011;67408;50.842;4.450;2023-08-17T02:24:06;6.65;;;3.67;;
32976;SDS011;67408;50.842;4.450;2023-08-17T02:26:32;6.93;;;3.67;;
32976;SDS011;67408;50.842;4.450;2023-08-17T02:28:57;6.32;;;3.47;;
32976;SDS011;67408;50.842;4.450;2023-08-17T02:31:24;7.88;;;4.13;;
32976;SDS011;67408;50.842;4.450;2023-08-17T02:33:49;13.18;;;4.20;;
32976;SDS011;67408;50.842;4.450;2023-08-17T02:36:15;8.00;;;3.67;;
32976;SDS011;67408;50.842;4.450;2023-08-17T02:38:41;10.48;;;4.00;;
32976;SDS011;67408;50.842;4.450;2023-08-17T02:41:06;6.35;;;4.13;;
32976;SDS011;67408;50.842;4.450;2023-08-17T02:43:32;10.07;;;4.00;;
32976;SDS011;67408;50.842;4.450;2023-08-17T02:45:58;6.25;;;3.83;;
32976;SDS011;67408;50.842;4.450;2023-08-17T02:48:24;5.60;;;3.72;;
32976;SDS011;67408;50.842;4.450;2023-08-17T02:50:50;12.52;;;3.90;;
32976;SDS011;67408;50.842;4.450;2023-08-17T02:53:15;9.80;;;3.20;;
32976;SDS011;67408;50.842;4.450;2023-08-17T02:55:41;10.50;;;4.10;;
32976;SDS011;67408;50.842;4.450;2023-08-17T02:58:07;10.23;;;3.90;;
32976;SDS011;67408;50.842;4.450;2023-08-17T03:00:33;7.18;;;3.22;;
32976;SDS011;67408;50.842;4.450;2023-08-17T03:02:58;11.27;;;4.22;;
32976;SDS011;67408;50.842;4.450;2023-08-17T03:05:24;15.27;;;4.38;;
32976;SDS011;67408;50.842;4.450;2023-08-17T03:07:50;8.40;;;4.00;;
32976;SDS011;67408;50.842;4.450;2023-08-17T03:10:15;8.05;;;3.67;;
32976;SDS011;67408;50.842;4.450;2023-08-17T03:12:41;14.30;;;3.50;;
32976;SDS011;67408;50.842;4.450;2023-08-17T03:15:07;8.57;;;3.50;;
32976;SDS011;67408;50.842;4.450;2023-08-17T03:17:32;9.15;;;4.32;;
32976;SDS011;67408;50.842;4.450;2023-08-17T03:19:58;7.10;;;4.05;;
32976;SDS011;67408;50.842;4.450;2023-08-17T03:22:25;7.90;;;3.70;;
32976;SDS011;67408;50.842;4.450;2023-08-17T03:24:50;7.15;;;3.80;;
32976;SDS011;67408;50.842;4.450;2023-08-17T03:27:16;8.23;;;3.70;;
32976;SDS011;67408;50.842;4.450;2023-08-17T03:29:42;8.27;;;3.50;;
32976;SDS011;67408;50.842;4.450;2023-08-17T03:32:07;7.57;;;3.83;;
32976;SDS011;67408;50.842;4.450;2023-08-17T03:34:33;12.77;;;4.20;;
32976;SDS011;67408;50.842;4.450;2023-08-17T03:36:59;11.85;;;4.60;;
32976;SDS011;67408;50.842;4.450;2023-08-17T03:39:24;9.43;;;4.43;;
32976;SDS011;67408;50.842;4.450;2023-08-17T03:41:50;10.48;;;3.47;;
32976;SDS011;67408;50.842;4.450;2023-08-17T03:44:16;7.43;;;4.00;;
32976;SDS011;67408;50.842;4.450;2023-08-17T03:46:42;7.40;;;3.88;;
32976;SDS011;67408;50.842;4.450;2023-08-17T03:49:08;10.30;;;4.22;;
32976;SDS011;67408;50.842;4.450;2023-08-17T03:51:33;11.55;;;4.18;;
32976;SDS011;67408;50.842;4.450;2023-08-17T03:53:59;11.70;;;4.40;;
32976;SDS011;67408;50.842;4.450;2023-08-17T03:56:24;8.38;;;3.65;;
32976;SDS011;67408;50.842;4.450;2023-08-17T03:58:50;6.30;;;3.95;;
32976;SDS011;67408;50.842;4.450;2023-08-17T04:01:18;11.35;;;4.63;;
32976;SDS011;67408;50.842;4.450;2023-08-17T04:03:43;10.93;;;4.68;;
32976;SDS011;67408;50.842;4.450;2023-08-17T04:06:09;10.57;;;4.28;;
32976;SDS011;67408;50.842;4.450;2023-08-17T04:08:37;9.25;;;4.35;;
32976;SDS011;67408;50.842;4.450;2023-08-17T04:11:04;7.95;;;4.20;;
32976;SDS011;67408;50.842;4.450;2023-08-17T04:13:30;8.18;;;4.22;;
32976;SDS011;67408;50.842;4.450;2023-08-17T04:15:56;10.18;;;3.92;;
32976;SDS011;67408;50.842;4.450;2023-08-17T04:18:22;12.57;;;4.05;;
32976;SDS011;67408;50.842;4.450;2023-08-17T04:20:48;7.97;;;3.97;;
32976;SDS011;67408;50.842;4.450;2023-08-17T04:23:14;11.52;;;4.40;;
32976;SDS011;67408;50.842;4.450;2023-08-17T04:25:40;12.77;;;4.70;;
32976;SDS011;67408;50.842;4.450;2023-08-17T04:28:06;14.63;;;4.43;;
32976;SDS011;67408;50.842;4.450;2023-08-17T04:30:32;16.05;;;4.75;;
32976;SDS011;67408;50.842;4.450;2023-08-17T04:32:58;12.02;;;4.53;;
32976;SDS011;67408;50.842;4.450;2023-08-17T04:35:23;10.98;;;4.82;;
32976;SDS011;67408;50.842;4.450;2023-08-17T04:37:49;9.68;;;4.53;;
32976;SDS011;67408;50.842;4.450;2023-08-17T04:40:15;11.80;;;4.47;;
32976;SDS011;67408;50.842;4.450;2023-08-17T04:42:41;13.30;;;5.10;;
32976;SDS011;67408;50.842;4.450;2023-08-17T04:45:08;16.02;;;4.78;;
32976;SDS011;67408;50.842;4.450;2023-08-17T04:47:34;9.70;;;5.03;;
32976;SDS011;67408;50.842;4.450;2023-08-17T04:49:59;10.10;;;4.82;;
32976;SDS011;67408;50.842;4.450;2023-08-17T04:52:25;10.65;;;4.90;;
32976;SDS011;67408;50.842;4.450;2023-08-17T04:54:52;12.50;;;5.15;;
32976;SDS011;67408;50.842;4.450;2023-08-17T04:57:18;9.35;;;4.78;;
32976;SDS011;67408;50.842;4.450;2023-08-17T04:59:44;13.23;;;5.20;;
32976;SDS011;67408;50.842;4.450;2023-08-17T05:02:10;13.90;;;4.40;;
32976;SDS011;67408;50.842;4.450;2023-08-17T05:04:36;12.32;;;4.78;;
32976;SDS011;67408;50.842;4.450;2023-08-17T05:07:02;8.20;;;4.20;;
32976;SDS011;67408;50.842;4.450;2023-08-17T05:09:27;7.50;;;4.38;;
32976;SDS011;67408;50.842;4.450;2023-08-17T05:11:53;13.07;;;4.50;;
32976;SDS011;67408;50.842;4.450;2023-08-17T05:14:19;11.52;;;4.60;;
32976;SDS011;67408;50.842;4.450;2023-08-17T05:16:45;13.85;;;4.95;;
32976;SDS011;67408;50.842;4.450;2023-08-17T05:19:11;10.52;;;5.00;;
32976;SDS011;67408;50.842;4.450;2023-08-17T05:21:37;12.48;;;4.40;;
32976;SDS011;67408;50.842;4.450;2023-08-17T05:24:03;14.00;;;4.60;;
32976;SDS011;67408;50.842;4.450;2023-08-17T05:26:30;16.25;;;4.47;;
32976;SDS011;67408;50.842;4.450;2023-08-17T05:28:56;10.13;;;3.95;;
32976;SDS011;67408;50.842;4.450;2023-08-17T05:31:22;19.75;;;4.47;;
32976;SDS011;67408;50.842;4.450;2023-08-17T05:33:48;13.93;;;5.03;;
32976;SDS011;67408;50.842;4.450;2023-08-17T05:36:13;15.18;;;5.10;;
32976;SDS011;67408;50.842;4.450;2023-08-17T05:39:08;13.32;;;3.80;;
32976;SDS011;67408;50.842;4.450;2023-08-17T05:41:38;15.20;;;4.65;;
32976;SDS011;67408;50.842;4.450;2023-08-17T05:44:06;10.57;;;4.45;;
32976;SDS011;67408;50.842;4.450;2023-08-17T05:46:33;17.13;;;4.43;;
32976;SDS011;67408;50.842;4.450;2023-08-17T05:49:19;16.63;;;4.53;;
32976;SDS011;67408;50.842;4.450;2023-08-17T05:51:44;19.10;;;5.57;;
32976;SDS011;67408;50.842;4.450;2023-08-17T05:54:10;13.35;;;4.47;;
32976;SDS011;67408;50.842;4.450;2023-08-17T05:56:35;21.70;;;4.07;;
32976;SDS011;67408;50.842;4.450;2023-08-17T05:59:04;14.85;;;4.20;;
32976;SDS011;67408;50.842;4.450;2023-08-17T06:03:56;17.50;;;4.82;;
32976;SDS011;67408;50.842;4.450;2023-08-17T06:06:22;13.85;;;4.13;;
32976;SDS011;67408;50.842;4.450;2023-08-17T06:08:48;14.27;;;4.72;;
32976;SDS011;67408;50.842;4.450;2023-08-17T06:11:13;8.68;;;3.63;;
32976;SDS011;67408;50.842;4.450;2023-08-17T06:13:42;18.15;;;5.13;;
32976;SDS011;67408;50.842;4.450;2023-08-17T06:16:08;24.65;;;4.53;;
32976;SDS011;67408;50.842;4.450;2023-08-17T06:18:35;17.23;;;5.22;;
32976;SDS011;67408;50.842;4.450;2023-08-17T06:21:02;14.57;;;4.25;;
32976;SDS011;67408;50.842;4.450;2023-08-17T06:23:30;14.60;;;5.43;;
32976;SDS011;67408;50.842;4.450;2023-08-17T06:26:00;14.48;;;4.60;;
32976;SDS011;67408;50.842;4.450;2023-08-17T06:30:54;11.38;;;4.85;;
32976;SDS011;67408;50.842;4.450;2023-08-17T06:33:20;17.83;;;4.70;;
32976;SDS011;67408;50.842;4.450;2023-08-17T06:35:46;15.82;;;5.10;;
32976;SDS011;67408;50.842;4.450;2023-08-17T06:38:15;21.33;;;6.00;;
32976;SDS011;67408;50.842;4.450;2023-08-17T06:40:41;12.75;;;5.63;;
32976;SDS011;67408;50.842;4.450;2023-08-17T06:43:07;12.68;;;5.78;;
32976;SDS011;67408;50.842;4.450;2023-08-17T06:45:34;14.98;;;4.75;;
32976;SDS011;67408;50.842;4.450;2023-08-17T06:48:01;11.82;;;5.07;;
32976;SDS011;67408;50.842;4.450;2023-08-17T06:50:27;13.82;;;5.00;;
32976;SDS011;67408;50.842;4.450;2023-08-17T06:52:54;15.88;;;5.97;;
32976;SDS011;67408;50.842;4.450;2023-08-17T06:55:21;18.63;;;5.47;;
32976;SDS011;67408;50.842;4.450;2023-08-17T06:57:47;16.15;;;5.22;;
32976;SDS011;67408;50.842;4.450;2023-08-17T07:00:17;17.98;;;5.53;;
32976;SDS011;67408;50.842;4.450;2023-08-17T07:02:47;19.63;;;5.88;;
32976;SDS011;67408;50.842;4.450;2023-08-17T07:05:16;9.52;;;5.07;;
32976;SDS011;67408;50.842;4.450;2023-08-17T07:07:42;16.07;;;6.90;;
32976;SDS011;67408;50.842;4.450;2023-08-17T07:10:08;21.27;;;5.97;;
32976;SDS011;67408;50.842;4.450;2023-08-17T07:12:37;15.82;;;7.25;;
32976;SDS011;67408;50.842;4.450;2023-08-17T07:15:04;27.27;;;7.28;;
32976;SDS011;67408;50.842;4.450;2023-08-17T07:17:31;18.70;;;7.03;;
32976;SDS011;67408;50.842;4.450;2023-08-17T07:19:59;33.33;;;8.07;;
32976;SDS011;67408;50.842;4.450;2023-08-17T07:22:24;34.35;;;8.73;;
32976;SDS011;67408;50.842;4.450;2023-08-17T07:24:50;36.25;;;8.52;;
32976;SDS011;67408;50.842;4.450;2023-08-17T07:27:16;21.27;;;8.07;;
32976;SDS011;67408;50.842;4.450;2023-08-17T07:29:41;16.60;;;7.95;;
32976;SDS011;67408;50.842;4.450;2023-08-17T07:32:07;22.73;;;8.07;;
32976;SDS011;67408;50.842;4.450;2023-08-17T07:34:32;19.30;;;7.97;;
32976;SDS011;67408;50.842;4.450;2023-08-17T07:36:58;21.85;;;7.65;;
32976;SDS011;67408;50.842;4.450;2023-08-17T07:39:24;18.88;;;7.25;;
32976;SDS011;67408;50.842;4.450;2023-08-17T07:41:50;23.48;;;7.10;;
32976;SDS011;67408;50.842;4.450;2023-08-17T07:44:15;19.67;;;8.15;;
32976;SDS011;67408;50.842;4.450;2023-08-17T07:46:41;21.13;;;7.72;;
32976;SDS011;67408;50.842;4.450;2023-08-17T07:49:07;23.92;;;8.13;;
32976;SDS011;67408;50.842;4.450;2023-08-17T07:51:32;18.20;;;8.55;;
32976;SDS011;67408;50.842;4.450;2023-08-17T07:54:01;20.13;;;8.05;;
32976;SDS011;67408;50.842;4.450;2023-08-17T07:56:27;27.52;;;8.63;;
32976;SDS011;67408;50.842;4.450;2023-08-17T07:58:53;26.98;;;8.13;;
32976;SDS011;67408;50.842;4.450;2023-08-17T08:01:20;25.90;;;8.65;;
32976;SDS011;67408;50.842;4.450;2023-08-17T08:03:46;16.13;;;6.68;;
32976;SDS011;67408;50.842;4.450;2023-08-17T08:06:15;17.40;;;7.85;;
32976;SDS011;67408;50.842;4.450;2023-08-17T08:08:40;22.38;;;7.97;;
32976;SDS011;67408;50.842;4.450;2023-08-17T08:11:06;20.42;;;7.80;;
32976;SDS011;67408;50.842;4.450;2023-08-17T08:13:32;18.73;;;6.47;;
32976;SDS011;67408;50.842;4.450;2023-08-17T08:16:00;12.68;;;6.47;;
32976;SDS011;67408;50.842;4.450;2023-08-17T08:18:26;21.90;;;6.25;;
32976;SDS011;67408;50.842;4.450;2023-08-17T08:20:52;16.65;;;6.13;;
32976;SDS011;67408;50.842;4.450;2023-08-17T08:23:22;25.02;;;6.45;;
32976;SDS011;67408;50.842;4.450;2023-08-17T08:28:15;19.15;;;6.60;;
32976;SDS011;67408;50.842;4.450;2023-08-17T08:30:41;25.05;;;7.15;;
32976;SDS011;67408;50.842;4.450;2023-08-17T08:33:06;20.00;;;7.72;;
32976;SDS011;67408;50.842;4.450;2023-08-17T08:35:32;25.27;;;8.68;;
32976;SDS011;67408;50.842;4.450;2023-08-17T08:37:58;16.90;;;8.15;;
32976;SDS011;67408;50.842;4.450;2023-08-17T08:40:28;17.95;;;7.50;;
32976;SDS011;67408;50.842;4.450;2023-08-17T08:42:55;28.92;;;7.80;;
32976;SDS011;67408;50.842;4.450;2023-08-17T08:45:22;28.13;;;8.15;;
32976;SDS011;67408;50.842;4.450;2023-08-17T08:47:49;17.85;;;7.72;;
32976;SDS011;67408;50.842;4.450;2023-08-17T08:50:18;18.98;;;7.93;;
32976;SDS011;67408;50.842;4.450;2023-08-17T08:52:59;15.68;;;7.22;;
32976;SDS011;67408;50.842;4.450;2023-08-17T08:55:29;19.57;;;6.27;;
32976;SDS011;67408;50.842;4.450;2023-08-17T08:57:58;16.95;;;7.07;;
32976;SDS011;67408;50.842;4.450;2023-08-17T09:00:24;19.23;;;7.40;;
32976;SDS011;67408;50.842;4.450;2023-08-17T09:02:51;20.35;;;7.00;;
32976;SDS011;67408;50.842;4.450;2023-08-17T09:05:17;13.15;;;6.68;;
32976;SDS011;67408;50.842;4.450;2023-08-17T09:07:44;16.08;;;6.50;;
32976;SDS011;67408;50.842;4.450;2023-08-17T09:10:13;18.40;;;6.03;;
32976;SDS011;67408;50.842;4.450;2023-08-17T09:12:41;22.50;;;7.32;;
32976;SDS011;67408;50.842;4.450;2023-08-17T09:15:07;15.13;;;6.88;;
32976;SDS011;67408;50.842;4.450;2023-08-17T09:17:33;23.95;;;7.97;;
32976;SDS011;67408;50.842;4.450;2023-08-17T09:20:01;17.20;;;7.13;;
32976;SDS011;67408;50.842;4.450;2023-08-17T09:25:07;16.77;;;7.75;;
32976;SDS011;67408;50.842;4.450;2023-08-17T09:27:34;20.75;;;7.78;;
32976;SDS011;67408;50.842;4.450;2023-08-17T09:30:08;26.85;;;8.27;;
32976;SDS011;67408;50.842;4.450;2023-08-17T09:32:35;24.60;;;8.50;;
32976;SDS011;67408;50.842;4.450;2023-08-17T09:35:02;18.73;;;8.20;;
32976;SDS011;67408;50.842;4.450;2023-08-17T09:37:30;16.58;;;7.80;;
32976;SDS011;67408;50.842;4.450;2023-08-17T09:39:56;21.10;;;8.13;;
32976;SDS011;67408;50.842;4.450;2023-08-17T09:42:22;18.10;;;9.27;;
32976;SDS011;67408;50.842;4.450;2023-08-17T09:44:51;23.73;;;8.68;;
32976;SDS011;67408;50.842;4.450;2023-08-17T09:49:51;21.08;;;9.63;;
32976;SDS011;67408;50.842;4.450;2023-08-17T09:52:21;20.73;;;10.50;;
32976;SDS011;67408;50.842;4.450;2023-08-17T09:54:48;20.20;;;9.98;;
32976;SDS011;67408;50.842;4.450;2023-08-17T09:57:15;21.33;;;9.02;;
32976;SDS011;67408;50.842;4.450;2023-08-17T09:59:41;25.95;;;9.88;;
32976;SDS011;67408;50.842;4.450;2023-08-17T10:02:17;16.55;;;8.88;;
32976;SDS011;67408;50.842;4.450;2023-08-17T10:04:51;19.63;;;9.75;;
32976;SDS011;67408;50.842;4.450;2023-08-17T10:07:30;20.42;;;10.18;;
32976;SDS011;67408;50.842;4.450;2023-08-17T10:10:04;27.25;;;9.95;;
32976;SDS011;67408;50.842;4.450;2023-08-17T10:12:32;17.13;;;8.32;;
32976;SDS011;67408;50.842;4.450;2023-08-17T10:15:07;16.48;;;7.65;;
32976;SDS011;67408;50.842;4.450;2023-08-17T10:17:37;16.85;;;8.90;;
32976;SDS011;67408;50.842;4.450;2023-08-17T10:20:09;17.50;;;9.63;;
32976;SDS011;67408;50.842;4.450;2023-08-17T10:22:39;20.35;;;9.43;;
32976;SDS011;67408;50.842;4.450;2023-08-17T10:25:12;22.35;;;9.40;;
32976;SDS011;67408;50.842;4.450;2023-08-17T10:27:39;17.58;;;9.32;;
32976;SDS011;67408;50.842;4.450;2023-08-17T10:30:06;15.73;;;8.50;;
32976;SDS011;67408;50.842;4.450;2023-08-17T10:32:34;18.42;;;9.43;;
32976;SDS011;67408;50.842;4.450;2023-08-17T10:35:00;17.35;;;9.13;;
32976;SDS011;67408;50.842;4.450;2023-08-17T10:37:27;24.27;;;9.25;;
32976;SDS011;67408;50.842;4.450;2023-08-17T10:39:54;18.38;;;9.68;;
32976;SDS011;67408;50.842;4.450;2023-08-17T10:44:59;32.78;;;12.40;;
32976;SDS011;67408;50.842;4.450;2023-08-17T10:47:29;23.20;;;12.63;;
32976;SDS011;67408;50.842;4.450;2023-08-17T10:50:04;21.55;;;10.95;;
32976;SDS011;67408;50.842;4.450;2023-08-17T10:52:32;25.33;;;12.18;;
32976;SDS011;67408;50.842;4.450;2023-08-17T10:55:00;23.52;;;13.13;;
32976;SDS011;67408;50.842;4.450;2023-08-17T11:02:58;19.33;;;10.60;;
32976;SDS011;67408;50.842;4.450;2023-08-17T11:05:40;18.65;;;9.20;;
32976;SDS011;67408;50.842;4.450;2023-08-17T11:08:33;19.42;;;9.40;;
32976;SDS011;67408;50.842;4.450;2023-08-17T11:11:05;15.30;;;9.02;;
32976;SDS011;67408;50.842;4.450;2023-08-17T11:13:31;14.63;;;8.30;;
32976;SDS011;67408;50.842;4.450;2023-08-17T11:16:01;17.13;;;8.20;;
32976;SDS011;67408;50.842;4.450;2023-08-17T11:18:28;18.20;;;8.02;;
32976;SDS011;67408;50.842;4.450;2023-08-17T11:20:54;17.55;;;7.93;;
32976;SDS011;67408;50.842;4.450;2023-08-17T11:23:20;19.60;;;8.73;;
32976;SDS011;67408;50.842;4.450;2023-08-17T11:25:47;17.60;;;8.10;;
32976;SDS011;67408;50.842;4.450;2023-08-17T11:28:13;17.48;;;7.70;;
32976;SDS011;67408;50.842;4.450;2023-08-17T11:30:40;17.98;;;8.55;;
32976;SDS011;67408;50.842;4.450;2023-08-17T11:33:07;14.98;;;8.93;;
32976;SDS011;67408;50.842;4.450;2023-08-17T11:35:33;16.15;;;8.60;;
32976;SDS011;67408;50.842;4.450;2023-08-17T11:37:59;18.52;;;8.73;;
32976;SDS011;67408;50.842;4.450;2023-08-17T11:40:25;18.63;;;9.23;;
32976;SDS011;67408;50.842;4.450;2023-08-17T11:42:51;17.80;;;8.55;;
32976;SDS011;67408;50.842;4.450;2023-08-17T11:45:17;16.23;;;8.65;;
32976;SDS011;67408;50.842;4.450;2023-08-17T11:47:43;20.70;;;9.65;;
32976;SDS011;67408;50.842;4.450;2023-08-17T11:50:10;19.02;;;8.85;;
32976;SDS011;67408;50.842;4.450;2023-08-17T11:52:37;14.43;;;8.18;;
32976;SDS011;67408;50.842;4.450;2023-08-17T11:55:03;18.00;;;8.65;;
32976;SDS011;67408;50.842;4.450;2023-08-17T11:57:34;24.60;;;10.75;;
32976;SDS011;67408;50.842;4.450;2023-08-17T12:00:01;20.67;;;10.80;;
32976;SDS011;67408;50.842;4.450;2023-08-17T12:02:28;16.10;;;9.52;;
32976;SDS011;67408;50.842;4.450;2023-08-17T12:04:55;15.77;;;9.40;;
32976;SDS011;67408;50.842;4.450;2023-08-17T12:07:24;16.63;;;8.38;;
32976;SDS011;67408;50.842;4.450;2023-08-17T12:09:51;23.98;;;10.32;;
32976;SDS011;67408;50.842;4.450;2023-08-17T12:12:18;20.10;;;10.55;;
32976;SDS011;67408;50.842;4.450;2023-08-17T12:14:46;23.70;;;10.63;;
32976;SDS011;67408;50.842;4.450;2023-08-17T12:17:16;23.50;;;10.48;;
32976;SDS011;67408;50.842;4.450;2023-08-17T12:19:43;18.92;;;10.65;;
32976;SDS011;67408;50.842;4.450;2023-08-17T12:22:10;27.52;;;10.15;;
32976;SDS011;67408;50.842;4.450;2023-08-17T12:24:38;19.45;;;9.90;;
32976;SDS011;67408;50.842;4.450;2023-08-17T12:27:05;20.60;;;9.63;;
32976;SDS011;67408;50.842;4.450;2023-08-17T12:29:31;16.63;;;10.52;;
32976;SDS011;67408;50.842;4.450;2023-08-17T12:31:57;26.88;;;11.90;;
32976;SDS011;67408;50.842;4.450;2023-08-17T12:34:24;28.70;;;10.82;;
32976;SDS011;67408;50.842;4.450;2023-08-17T12:36:49;21.88;;;11.27;;
32976;SDS011;67408;50.842;4.450;2023-08-17T12:39:15;24.35;;;11.88;;
32976;SDS011;67408;50.842;4.450;2023-08-17T12:41:41;22.27;;;11.18;;
32976;SDS011;67408;50.842;4.450;2023-08-17T12:44:08;25.15;;;13.88;;
32976;SDS011;67408;50.842;4.450;2023-08-17T12:46:38;28.85;;;12.98;;
32976;SDS011;67408;50.842;4.450;2023-08-17T12:49:06;26.33;;;13.23;;
32976;SDS011;67408;50.842;4.450;2023-08-17T12:51:32;20.48;;;12.32;;
32976;SDS011;67408;50.842;4.450;2023-08-17T12:53:58;22.73;;;14.20;;
32976;SDS011;67408;50.842;4.450;2023-08-17T12:56:24;19.90;;;13.27;;
32976;SDS011;67408;50.842;4.450;2023-08-17T12:58:50;24.50;;;16.25;;
32976;SDS011;67408;50.842;4.450;2023-08-17T13:01:15;27.42;;;16.15;;
32976;SDS011;67408;50.842;4.450;2023-08-17T13:03:42;25.35;;;15.57;;
32976;SDS011;67408;50.842;4.450;2023-08-17T13:06:08;33.53;;;15.23;;
32976;SDS011;67408;50.842;4.450;2023-08-17T13:08:34;31.20;;;14.90;;
32976;SDS011;67408;50.842;4.450;2023-08-17T13:11:00;33.00;;;15.98;;
32976;SDS011;67408;50.842;4.450;2023-08-17T13:13:25;24.30;;;14.02;;
32976;SDS011;67408;50.842;4.450;2023-08-17T13:15:51;36.20;;;14.57;;
32976;SDS011;67408;50.842;4.450;2023-08-17T13:18:17;23.25;;;13.60;;
32976;SDS011;67408;50.842;4.450;2023-08-17T13:20:43;29.45;;;14.25;;
32976;SDS011;67408;50.842;4.450;2023-08-17T13:23:09;32.08;;;14.45;;
32976;SDS011;67408;50.842;4.450;2023-08-17T13:25:35;28.50;;;14.32;;
32976;SDS011;67408;50.842;4.450;2023-08-17T13:28:01;27.70;;;13.25;;
32976;SDS011;67408;50.842;4.450;2023-08-17T13:30:27;31.85;;;15.20;;
32976;SDS011;67408;50.842;4.450;2023-08-17T13:32:53;35.63;;;15.00;;
32976;SDS011;67408;50.842;4.450;2023-08-17T13:35:18;29.98;;;16.55;;
32976;SDS011;67408;50.842;4.450;2023-08-17T13:37:44;27.75;;;15.48;;
32976;SDS011;67408;50.842;4.450;2023-08-17T13:40:10;43.83;;;15.55;;
32976;SDS011;67408;50.842;4.450;2023-08-17T13:42:36;33.80;;;16.65;;
32976;SDS011;67408;50.842;4.450;2023-08-17T13:45:02;28.75;;;16.55;;
32976;SDS011;67408;50.842;4.450;2023-08-17T13:47:28;31.23;;;16.90;;
32976;SDS011;67408;50.842;4.450;2023-08-17T13:49:54;34.88;;;16.90;;
32976;SDS011;67408;50.842;4.450;2023-08-17T13:52:21;35.20;;;15.65;;
32976;SDS011;67408;50.842;4.450;2023-08-17T13:54:47;31.85;;;14.68;;
32976;SDS011;67408;50.842;4.450;2023-08-17T13:57:13;28.90;;;14.88;;
32976;SDS011;67408;50.842;4.450;2023-08-17T13:59:39;28.48;;;15.82;;
32976;SDS011;67408;50.842;4.450;2023-08-17T14:03:17;29.60;;;14.90;;
32976;SDS011;67408;50.842;4.450;2023-08-17T14:06:38;26.15;;;16.73;;
32976;SDS011;67408;50.842;4.450;2023-08-17T14:09:04;26.83;;;14.95;;
32976;SDS011;67408;50.842;4.450;2023-08-17T14:11:30;29.15;;;14.88;;
32976;SDS011;67408;50.842;4.450;2023-08-17T14:13:56;34.72;;;16.52;;
32976;SDS011;67408;50.842;4.450;2023-08-17T14:16:22;26.67;;;15.02;;
32976;SDS011;67408;50.842;4.450;2023-08-17T14:18:47;38.13;;;16.35;;
32976;SDS011;67408;50.842;4.450;2023-08-17T14:21:13;26.90;;;15.23;;
32976;SDS011;67408;50.842;4.450;2023-08-17T14:23:39;22.35;;;14.93;;
32976;SDS011;67408;50.842;4.450;2023-08-17T14:26:06;30.95;;;15.15;;
32976;SDS011;67408;50.842;4.450;2023-08-17T14:28:32;28.10;;;16.20;;
32976;SDS011;67408;50.842;4.450;2023-08-17T14:30:58;28.38;;;15.57;;
32976;SDS011;67408;50.842;4.450;2023-08-17T14:33:23;29.10;;;16.33;;
32976;SDS011;67408;50.842;4.450;2023-08-17T14:35:49;36.67;;;15.13;;
32976;SDS011;67408;50.842;4.450;2023-08-17T14:38:16;27.95;;;17.70;;
32976;SDS011;67408;50.842;4.450;2023-08-17T14:40:43;29.70;;;17.70;;
32976;SDS011;67408;50.842;4.450;2023-08-17T14:43:10;30.45;;;16.33;;
32976;SDS011;67408;50.842;4.450;2023-08-17T14:45:38;28.25;;;16.50;;
32976;SDS011;67408;50.842;4.450;2023-08-17T14:48:07;22.42;;;15.50;;
32976;SDS011;67408;50.842;4.450;2023-08-17T14:50:34;31.00;;;15.25;;
32976;SDS011;67408;50.842;4.450;2023-08-17T14:53:00;31.83;;;17.08;;
32976;SDS011;67408;50.842;4.450;2023-08-17T14:55:33;27.13;;;16.33;;
32976;SDS011;67408;50.842;4.450;2023-08-17T14:57:59;28.90;;;17.05;;
32976;SDS011;67408;50.842;4.450;2023-08-17T15:00:25;26.08;;;16.30;;
32976;SDS011;67408;50.842;4.450;2023-08-17T15:02:55;34.00;;;16.45;;